Terminal Aerodrome Forecast
Issued by NWS Sioux Falls, SD

Home | Current Version | Previous Version | Text Only | Print | Product List | Glossary Off
Versions: 1 2 3 4 5 6 7 8 9 10 11 12 13 14 15 16 17 18 19 20 21 22 23 24

000
FTUS43 KFSD 301735
TAFSUX
TAF
KSUX 301735Z 3018/3118 25020G30KT P6SM BKN250
     FM302000 29017G27KT P6SM SCT250
     FM310000 31009KT P6SM SKC
     FM310400 VRB03KT P6SM SKC=

USA.gov is the U.S. government's official web portal to all federal, state and local government web resources and services.